createdAt,value
2023-04-19T00:00:13.995Z,14.56
2023-04-19T00:01:14.137Z,14.58
2023-04-19T00:02:14.374Z,14.55
2023-04-19T00:03:14.905Z,14.52
2023-04-19T00:04:15.080Z,14.58
2023-04-19T00:05:14.547Z,14.56
2023-04-19T00:06:14.441Z,14.59
2023-04-19T00:07:14.421Z,14.62
2023-04-19T00:08:14.392Z,14.59
2023-04-19T00:09:14.368Z,14.62
2023-04-19T00:10:14.340Z,14.62
2023-04-19T00:11:14.315Z,14.59
2023-04-19T00:12:14.291Z,14.63
2023-04-19T00:13:14.252Z,14.52
2023-04-19T00:14:14.785Z,14.46
2023-04-19T00:15:14.182Z,14.52
2023-04-19T00:16:14.188Z,14.56
2023-04-19T00:17:14.133Z,14.56
2023-04-19T00:18:14.112Z,14.55
2023-04-19T00:19:14.075Z,14.60
2023-04-19T00:20:14.052Z,14.60
2023-04-19T00:21:14.022Z,14.59
2023-04-19T00:22:13.994Z,14.60
2023-04-19T00:23:13.955Z,14.55
2023-04-19T00:24:14.139Z,14.58
2023-04-19T00:25:14.033Z,14.35
2023-04-19T00:26:14.211Z,14.36
2023-04-19T00:27:14.377Z,14.39
2023-04-19T00:28:14.545Z,14.45
2023-04-19T00:29:14.721Z,14.45
2023-04-19T00:30:14.890Z,14.46
2023-04-19T00:31:14.997Z,14.47
2023-04-19T00:32:15.177Z,14.52
2023-04-19T00:33:15.384Z,14.53
2023-04-19T00:34:15.802Z,14.56
2023-04-19T00:35:15.488Z,14.53
2023-04-19T00:36:15.452Z,14.45
2023-04-19T00:37:15.414Z,14.33
2023-04-19T00:38:15.357Z,14.39
2023-04-19T00:39:15.276Z,14.43
2023-04-19T00:40:15.230Z,14.46
2023-04-19T00:41:15.143Z,14.47
2023-04-19T00:42:15.097Z,14.50
2023-04-19T00:43:15.071Z,14.49
2023-04-19T00:44:15.378Z,14.55
2023-04-19T00:45:15.004Z,14.53
2023-04-19T00:46:15.078Z,14.55
2023-04-19T00:47:14.907Z,14.59
2023-04-19T00:48:14.873Z,14.60
2023-04-19T00:49:14.855Z,14.60
2023-04-19T00:50:14.801Z,14.56
2023-04-19T00:51:14.760Z,14.56
2023-04-19T00:52:14.720Z,14.60
2023-04-19T00:53:14.649Z,14.62
2023-04-19T00:54:14.823Z,14.52
2023-04-19T00:55:14.550Z,14.56
2023-04-19T00:56:14.513Z,14.47
2023-04-19T00:57:14.463Z,14.53
2023-04-19T00:58:14.423Z,14.55
2023-04-19T00:59:14.369Z,14.50
2023-04-19T01:00:14.333Z,14.45
2023-04-19T01:01:14.336Z,14.45
2023-04-19T01:02:14.285Z,14.49
2023-04-19T01:03:14.422Z,14.50
2023-04-19T01:04:14.429Z,14.50
2023-04-19T01:05:14.055Z,14.47
2023-04-19T01:06:14.006Z,14.52
2023-04-19T01:07:13.990Z,14.52
2023-04-19T01:08:14.172Z,14.53
2023-04-19T01:09:14.326Z,14.50
2023-04-19T01:10:14.530Z,14.50
2023-04-19T01:11:14.700Z,14.53
2023-04-19T01:12:14.877Z,14.52
2023-04-19T01:13:15.082Z,14.55
2023-04-19T01:14:15.609Z,14.52
2023-04-19T01:15:15.233Z,14.52
2023-04-19T01:16:15.250Z,14.42
2023-04-19T01:17:15.171Z,14.49
2023-04-19T01:18:15.140Z,14.47
2023-04-19T01:19:15.261Z,14.46
2023-04-19T01:20:15.522Z,14.52
2023-04-19T01:21:15.674Z,14.50
2023-04-19T01:22:15.856Z,14.50
2023-04-19T01:23:16.074Z,14.52
2023-04-19T01:24:16.465Z,14.50
2023-04-19T01:25:16.494Z,14.50
2023-04-19T01:26:16.683Z,14.50
2023-04-19T01:27:16.892Z,14.50
2023-04-19T01:28:17.096Z,14.50
2023-04-19T01:29:17.303Z,14.49
2023-04-19T01:30:17.468Z,14.52
2023-04-19T01:31:17.686Z,14.43
2023-04-19T01:32:17.862Z,14.45
2023-04-19T01:33:18.118Z,14.43
2023-04-19T01:34:18.297Z,14.37
2023-04-19T01:35:18.487Z,14.35
2023-04-19T01:36:18.745Z,14.25
2023-04-19T01:37:18.914Z,14.31
2023-04-19T01:38:19.228Z,14.19
2023-04-19T01:39:19.381Z,14.25
2023-04-19T01:40:19.555Z,14.25
2023-04-19T01:41:19.724Z,14.09
2023-04-19T01:42:19.902Z,14.09
2023-04-19T01:43:20.144Z,14.18
2023-04-19T01:44:20.324Z,14.19
2023-04-19T01:45:20.510Z,14.04
2023-04-19T01:46:20.688Z,14.07
2023-04-19T01:47:20.839Z,14.04
2023-04-19T01:48:21.010Z,14.07
2023-04-19T01:49:21.205Z,13.90
2023-04-19T01:50:21.453Z,14.02
2023-04-19T01:51:21.639Z,14.08
2023-04-19T01:52:21.841Z,14.07
2023-04-19T01:53:21.992Z,14.11
2023-04-19T01:54:22.177Z,14.05
2023-04-19T01:55:22.359Z,14.07
2023-04-19T01:56:22.532Z,14.08
2023-04-19T01:57:22.712Z,14.07
2023-04-19T01:58:22.899Z,14.07
2023-04-19T01:59:23.081Z,13.87
2023-04-19T02:00:23.351Z,14.04
2023-04-19T02:01:23.602Z,14.01
2023-04-19T02:02:23.825Z,14.07
2023-04-19T02:03:24.011Z,14.07
2023-04-19T02:04:24.067Z,14.09
2023-04-19T02:05:24.223Z,14.08
2023-04-19T02:06:24.405Z,14.09
2023-04-19T02:07:24.634Z,14.11
2023-04-19T02:08:24.813Z,14.14
2023-04-19T02:09:25.023Z,14.15
2023-04-19T02:10:25.192Z,14.12
2023-04-19T02:11:25.380Z,14.15
2023-04-19T02:12:25.675Z,14.19
2023-04-19T02:13:25.841Z,14.19
2023-04-19T02:14:26.025Z,14.21
2023-04-19T02:15:26.211Z,14.24
2023-04-19T02:16:26.541Z,14.24
2023-04-19T02:17:26.756Z,14.26
2023-04-19T02:18:27.765Z,14.25
2023-04-19T02:19:26.886Z,14.29
2023-04-19T02:20:26.805Z,14.29
2023-04-19T02:21:26.764Z,14.31
2023-04-19T02:22:26.742Z,14.26
2023-04-19T02:23:26.866Z,14.29
2023-04-19T02:24:27.190Z,14.31
2023-04-19T02:25:27.337Z,14.31
2023-04-19T02:26:28.274Z,14.31
2023-04-19T02:27:27.481Z,14.25
2023-04-19T02:28:27.435Z,14.21
2023-04-19T02:29:27.406Z,14.19
2023-04-19T02:30:27.391Z,14.24
2023-04-19T02:31:27.591Z,14.25
2023-04-19T02:32:27.781Z,14.25
2023-04-19T02:33:28.025Z,14.17
2023-04-19T02:34:28.204Z,14.19
2023-04-19T02:35:28.482Z,14.17
2023-04-19T02:36:28.649Z,13.87
2023-04-19T02:37:28.808Z,14.02
2023-04-19T02:38:29.068Z,14.04
2023-04-19T02:39:29.226Z,14.05
2023-04-19T02:40:29.463Z,13.94
2023-04-19T02:41:29.623Z,14.02
2023-04-19T02:42:29.873Z,14.02
2023-04-19T02:43:30.049Z,13.93
2023-04-19T02:44:30.310Z,13.96
2023-04-19T02:45:30.544Z,13.90
2023-04-19T02:46:30.771Z,13.94
2023-04-19T02:47:30.908Z,13.94
2023-04-19T02:48:31.136Z,13.94
2023-04-19T02:49:31.317Z,13.97
2023-04-19T02:50:31.495Z,14.01
2023-04-19T02:51:31.664Z,14.00
2023-04-19T02:52:31.907Z,13.98
2023-04-19T02:53:32.088Z,13.97
2023-04-19T02:54:32.274Z,14.01
2023-04-19T02:55:32.454Z,13.98
2023-04-19T02:56:32.647Z,13.98
2023-04-19T02:57:32.797Z,13.98
2023-04-19T02:58:32.946Z,14.04
2023-04-19T02:59:33.197Z,14.05
2023-04-19T03:00:33.357Z,14.02
2023-04-19T03:01:33.657Z,14.00
2023-04-19T03:02:33.884Z,14.02
2023-04-19T03:03:34.060Z,14.00
2023-04-19T03:04:34.279Z,13.94
2023-04-19T03:05:34.296Z,13.96
2023-04-19T03:06:34.494Z,13.93
2023-04-19T03:07:34.744Z,13.85
2023-04-19T03:08:34.839Z,13.78
2023-04-19T03:09:35.156Z,13.66
2023-04-19T03:10:35.239Z,13.69
2023-04-19T03:11:35.496Z,13.63
2023-04-19T03:12:35.592Z,13.69
2023-04-19T03:13:35.856Z,13.56
2023-04-19T03:14:36.030Z,13.42
2023-04-19T03:15:36.308Z,13.39
2023-04-19T03:16:36.484Z,13.48
2023-04-19T03:18:25.746Z,13.38
2023-04-19T03:19:25.962Z,13.48
2023-04-19T03:20:26.104Z,13.55
2023-04-19T03:21:26.224Z,13.55
2023-04-19T03:22:26.355Z,13.55
2023-04-19T03:23:26.462Z,13.62
2023-04-19T03:24:26.656Z,13.50
2023-04-19T03:25:26.875Z,13.59
2023-04-19T03:26:26.994Z,13.65
2023-04-19T03:27:27.101Z,13.66
2023-04-19T03:28:27.296Z,13.66
2023-04-19T03:29:27.500Z,13.69
2023-04-19T03:30:27.605Z,13.72
2023-04-19T03:31:27.855Z,13.76
2023-04-19T03:32:27.988Z,13.69
2023-04-19T03:33:28.063Z,13.76
2023-04-19T03:34:28.296Z,13.77
2023-04-19T03:35:28.412Z,13.78
2023-04-19T03:36:28.520Z,13.70
2023-04-19T03:37:28.729Z,13.78
2023-04-19T03:38:28.861Z,13.78
2023-04-19T03:39:28.986Z,13.81
2023-04-19T03:40:29.198Z,13.85
2023-04-19T03:41:29.373Z,13.84
2023-04-19T03:42:29.472Z,13.87
2023-04-19T03:43:29.664Z,13.90
2023-04-19T03:44:29.890Z,13.84
2023-04-19T03:45:30.012Z,13.85
2023-04-19T03:46:30.179Z,13.88
2023-04-19T03:47:30.291Z,13.88
2023-04-19T03:48:30.361Z,13.83
2023-04-19T03:49:30.574Z,13.77
2023-04-19T03:50:30.698Z,13.80
2023-04-19T03:51:30.808Z,13.74
2023-04-19T03:52:30.937Z,13.84
2023-04-19T03:53:31.140Z,13.83
2023-04-19T03:54:31.253Z,13.81
2023-04-19T03:55:31.282Z,13.80
2023-04-19T03:56:31.396Z,13.81
2023-04-19T03:57:31.649Z,13.81
2023-04-19T03:58:32.545Z,13.84
2023-04-19T03:59:31.767Z,13.72
2023-04-19T04:00:31.775Z,13.74
2023-04-19T04:01:31.814Z,13.76
2023-04-19T04:02:31.909Z,13.76
2023-04-19T04:03:32.053Z,13.77
2023-04-19T04:04:32.140Z,13.78
2023-04-19T04:05:31.938Z,13.81
2023-04-19T04:06:31.936Z,13.78
2023-04-19T04:07:31.939Z,13.80
2023-04-19T04:08:31.972Z,13.83
2023-04-19T04:09:31.970Z,13.76
2023-04-19T04:10:32.035Z,13.80
2023-04-19T04:11:32.037Z,13.74
2023-04-19T04:12:32.055Z,13.70
2023-04-19T04:13:32.066Z,13.73
2023-04-19T04:14:32.096Z,13.76
2023-04-19T04:15:32.116Z,13.76
2023-04-19T04:16:32.188Z,13.76
2023-04-19T04:17:32.167Z,13.80
2023-04-19T04:18:32.176Z,13.81
2023-04-19T04:19:32.214Z,13.83
2023-04-19T04:20:32.227Z,13.85
2023-04-19T04:21:32.247Z,13.83
2023-04-19T04:22:32.267Z,13.88
2023-04-19T04:23:32.283Z,13.83
2023-04-19T04:24:32.304Z,13.81
2023-04-19T04:25:32.321Z,13.84
2023-04-19T04:26:32.339Z,13.84
2023-04-19T04:27:32.355Z,13.85
2023-04-19T04:28:32.389Z,13.85
2023-04-19T04:29:32.406Z,13.83
2023-04-19T04:30:32.445Z,13.85
2023-04-19T04:31:32.520Z,13.62
2023-04-19T04:32:32.538Z,13.72
2023-04-19T04:33:32.517Z,13.67
2023-04-19T04:34:32.544Z,13.65
2023-04-19T04:35:32.562Z,13.70
2023-04-19T04:36:32.583Z,13.74
2023-04-19T04:37:32.607Z,13.72
2023-04-19T04:38:32.612Z,13.76
2023-04-19T04:39:32.623Z,13.77
2023-04-19T04:40:32.632Z,13.77
2023-04-19T04:41:32.633Z,13.78
2023-04-19T04:42:32.645Z,13.76
2023-04-19T04:43:32.645Z,13.80
2023-04-19T04:44:32.663Z,13.78
2023-04-19T04:45:32.741Z,13.81
2023-04-19T04:46:32.676Z,13.83
2023-04-19T04:47:32.748Z,13.80
2023-04-19T04:48:32.714Z,13.81
2023-04-19T04:49:32.718Z,13.83
2023-04-19T04:50:32.704Z,13.76
2023-04-19T04:51:32.717Z,13.77
2023-04-19T04:52:32.720Z,13.80
2023-04-19T04:53:32.732Z,13.78
2023-04-19T04:54:32.753Z,13.74
2023-04-19T04:55:32.753Z,13.76
2023-04-19T04:56:32.789Z,13.78
2023-04-19T04:57:32.791Z,13.78
2023-04-19T04:58:32.830Z,13.78
2023-04-19T04:59:32.838Z,13.69
2023-04-19T05:00:32.863Z,13.66
2023-04-19T05:01:32.954Z,13.56
2023-04-19T05:02:33.053Z,13.67
2023-04-19T05:03:33.044Z,13.69
2023-04-19T05:04:33.049Z,13.72
2023-04-19T05:05:33.032Z,13.72
2023-04-19T05:06:33.060Z,13.76
2023-04-19T05:07:33.102Z,13.74
2023-04-19T05:08:34.084Z,13.72
2023-04-19T05:09:33.141Z,13.56
2023-04-19T05:10:33.209Z,13.60
2023-04-19T05:11:33.255Z,13.67
2023-04-19T05:12:33.266Z,13.57
2023-04-19T05:13:33.321Z,13.62
2023-04-19T05:14:33.357Z,13.66
2023-04-19T05:15:33.373Z,13.70
2023-04-19T05:16:33.427Z,13.72
2023-04-19T05:17:33.487Z,13.70
2023-04-19T05:18:33.475Z,13.74
2023-04-19T05:19:33.503Z,13.73
2023-04-19T05:20:33.523Z,13.74
2023-04-19T05:21:33.541Z,13.74
2023-04-19T05:22:33.573Z,13.80
2023-04-19T05:23:33.611Z,13.80
2023-04-19T05:24:33.604Z,13.80
2023-04-19T05:25:33.618Z,13.80
2023-04-19T05:26:33.635Z,13.81
2023-04-19T05:27:33.658Z,13.81
2023-04-19T05:28:33.689Z,13.81
2023-04-19T05:29:33.699Z,13.80
2023-04-19T05:30:33.732Z,13.80
2023-04-19T05:31:33.926Z,13.81
2023-04-19T05:32:34.630Z,13.83
2023-04-19T05:33:33.829Z,13.84
2023-04-19T05:34:33.845Z,13.85
2023-04-19T05:35:33.845Z,13.87
2023-04-19T05:36:33.925Z,13.88
2023-04-19T05:37:33.883Z,13.88
2023-04-19T05:38:33.907Z,13.88
2023-04-19T05:39:33.935Z,13.85
2023-04-19T05:40:33.957Z,13.85
2023-04-19T05:41:34.079Z,13.78
2023-04-19T05:42:34.184Z,13.70
2023-04-19T05:43:34.406Z,13.80
2023-04-19T05:44:34.552Z,13.80
2023-04-19T05:45:34.705Z,13.83
2023-04-19T05:46:34.940Z,13.81
2023-04-19T05:47:35.041Z,13.84
2023-04-19T05:48:35.247Z,13.83
2023-04-19T05:49:35.473Z,13.84
2023-04-19T05:50:35.637Z,13.85
2023-04-19T05:51:35.752Z,13.88
2023-04-19T05:52:35.770Z,13.90
2023-04-19T05:53:35.797Z,13.93
2023-04-19T05:54:35.837Z,13.93
2023-04-19T05:55:35.823Z,13.96
2023-04-19T05:56:35.827Z,13.97
2023-04-19T05:57:35.839Z,13.93
2023-04-19T05:58:35.864Z,13.87
2023-04-19T05:59:35.885Z,13.91
2023-04-19T06:00:36.594Z,13.93
2023-04-19T06:01:35.935Z,13.94
2023-04-19T06:02:36.086Z,13.98
2023-04-19T06:03:36.188Z,14.01
2023-04-19T06:04:36.330Z,13.96
2023-04-19T06:05:35.991Z,13.98
2023-04-19T06:06:35.975Z,13.98
2023-04-19T06:07:40.681Z,14.00
2023-04-19T06:08:37.034Z,14.01
2023-04-19T06:09:35.953Z,13.98
2023-04-19T06:10:48.778Z,14.02
2023-04-19T06:11:43.102Z,14.01
2023-04-19T06:12:36.867Z,14.01
2023-04-19T06:13:35.859Z,13.93
2023-04-19T06:14:35.844Z,14.02
2023-04-19T06:15:35.812Z,14.01
2023-04-19T06:16:35.814Z,14.07
2023-04-19T06:17:35.792Z,14.05
2023-04-19T06:18:35.757Z,14.09
2023-04-19T06:19:35.725Z,14.14
2023-04-19T06:20:35.721Z,14.05
2023-04-19T06:21:35.680Z,14.11
2023-04-19T06:22:35.648Z,14.14
2023-04-19T06:23:35.618Z,14.12
2023-04-19T06:24:35.616Z,14.17
2023-04-19T06:25:35.569Z,14.15
2023-04-19T06:26:35.546Z,14.14
2023-04-19T06:27:35.505Z,14.17
2023-04-19T06:28:35.487Z,14.15
2023-04-19T06:29:35.461Z,14.01
2023-04-19T06:30:35.457Z,14.09
2023-04-19T06:31:35.455Z,14.07
2023-04-19T06:32:35.451Z,14.17
2023-04-19T06:33:35.337Z,14.17
2023-04-19T06:34:35.346Z,14.19
2023-04-19T06:35:35.316Z,14.21
2023-04-19T06:36:35.293Z,14.18
2023-04-19T06:37:35.237Z,14.19
2023-04-19T06:38:35.191Z,14.15
2023-04-19T06:39:35.190Z,14.21
2023-04-19T06:40:35.178Z,14.19
2023-04-19T06:41:35.116Z,14.18
2023-04-19T06:42:35.152Z,14.22
2023-04-19T06:43:35.618Z,14.25
2023-04-19T06:44:35.048Z,14.29
2023-04-19T06:45:35.026Z,14.28
2023-04-19T06:46:34.972Z,14.28
2023-04-19T06:47:35.849Z,14.26
2023-04-19T06:48:34.963Z,14.26
2023-04-19T06:49:34.914Z,14.29
2023-04-19T06:50:35.113Z,14.35
2023-04-19T06:51:35.765Z,14.33
2023-04-19T06:52:34.817Z,14.35
2023-04-19T06:53:34.781Z,14.39
2023-04-19T06:54:34.767Z,14.40
2023-04-19T06:55:34.741Z,14.39
2023-04-19T06:56:34.692Z,14.35
2023-04-19T06:57:34.682Z,14.39
2023-04-19T06:58:35.369Z,14.40
2023-04-19T06:59:34.662Z,14.43
2023-04-19T07:00:37.619Z,14.45
2023-04-19T07:01:34.597Z,14.45
2023-04-19T07:02:34.703Z,14.22
2023-04-19T07:03:35.281Z,14.35
2023-04-19T07:04:34.686Z,14.32
2023-04-19T07:05:34.514Z,14.29
2023-04-19T07:06:34.462Z,14.29
2023-04-19T07:07:34.451Z,14.31
2023-04-19T07:08:48.837Z,14.19
2023-04-19T07:09:35.499Z,14.25
2023-04-19T07:10:34.373Z,14.07
2023-04-19T07:11:34.373Z,14.15
2023-04-19T07:12:34.354Z,14.07
2023-04-19T07:13:34.335Z,14.02
2023-04-19T07:14:34.370Z,14.05
2023-04-19T07:15:34.341Z,13.98
2023-04-19T07:16:34.342Z,14.05
2023-04-19T07:17:34.354Z,14.02
2023-04-19T07:18:34.287Z,13.98
2023-04-19T07:19:34.288Z,13.88
2023-04-19T07:20:34.293Z,13.87
2023-04-19T07:21:34.273Z,13.91
2023-04-19T07:22:34.258Z,13.80
2023-04-19T07:23:34.255Z,13.85
2023-04-19T07:24:35.057Z,13.88
2023-04-19T07:25:34.325Z,13.90
2023-04-19T07:26:34.411Z,13.91
2023-04-19T07:27:34.392Z,13.96
2023-04-19T07:28:34.404Z,13.83
2023-04-19T07:29:34.426Z,13.87
2023-04-19T07:30:34.467Z,13.85
2023-04-19T07:31:34.474Z,13.97
2023-04-19T07:32:34.598Z,14.11
2023-04-19T07:33:34.520Z,14.25
2023-04-19T07:34:34.675Z,14.40
2023-04-19T07:35:34.467Z,14.32
2023-04-19T07:36:34.475Z,14.45
2023-04-19T07:37:34.468Z,14.50
2023-04-19T07:38:34.457Z,14.62
2023-04-19T07:39:34.442Z,14.80
2023-04-19T07:40:34.405Z,14.91
2023-04-19T07:41:35.924Z,14.98
2023-04-19T07:42:34.408Z,14.99
2023-04-19T07:43:34.408Z,15.08
2023-04-19T07:44:34.410Z,14.99
2023-04-19T07:45:34.387Z,14.92
2023-04-19T07:46:34.406Z,14.71
2023-04-19T07:47:34.469Z,14.74
2023-04-19T07:48:34.501Z,14.92
2023-04-19T07:49:34.567Z,14.99
2023-04-19T07:50:35.497Z,14.99
2023-04-19T07:51:34.475Z,14.98
2023-04-19T07:52:34.435Z,14.84
2023-04-19T07:53:34.371Z,14.91
2023-04-19T07:54:34.344Z,14.81
2023-04-19T07:55:34.308Z,14.94
2023-04-19T07:56:34.268Z,14.67
2023-04-19T07:57:34.241Z,14.60
2023-04-19T07:58:34.214Z,14.71
2023-04-19T07:59:34.174Z,14.87
2023-04-19T08:00:34.153Z,14.90
2023-04-19T08:01:34.202Z,14.86
2023-04-19T08:02:34.379Z,15.02
2023-04-19T08:03:34.329Z,15.23
2023-04-19T08:04:34.173Z,15.39
2023-04-19T08:05:34.043Z,15.43
2023-04-19T08:06:34.649Z,15.58
2023-04-19T08:07:33.858Z,15.78
2023-04-19T08:08:34.253Z,15.88
2023-04-19T08:09:33.845Z,15.85
2023-04-19T08:10:33.763Z,16.04
2023-04-19T08:11:33.664Z,16.04
2023-04-19T08:12:40.567Z,15.98
2023-04-19T08:13:34.534Z,15.91
2023-04-19T08:14:40.809Z,16.00
2023-04-19T08:17:14.524Z,16.33
2023-04-19T08:18:33.288Z,16.49
2023-04-19T08:19:33.214Z,16.63
2023-04-19T08:20:33.144Z,16.61
2023-04-19T08:21:40.447Z,16.81
2023-04-19T08:22:34.176Z,16.89
2023-04-19T08:24:33.053Z,16.67
2023-04-19T08:25:33.005Z,16.53
2023-04-19T08:26:32.954Z,16.44
2023-04-19T08:27:32.925Z,16.53
2023-04-19T08:28:32.889Z,16.57
2023-04-19T08:29:32.818Z,16.50
2023-04-19T08:30:32.767Z,16.43
2023-04-19T08:31:32.762Z,16.70
2023-04-19T08:32:32.668Z,16.44
2023-04-19T08:33:32.620Z,16.71
2023-04-19T08:34:32.836Z,16.75
2023-04-19T08:35:33.013Z,17.04
2023-04-19T08:36:41.102Z,17.06
2023-04-19T08:37:34.072Z,17.08
2023-04-19T08:38:33.637Z,16.78
2023-04-19T08:39:34.211Z,16.59
2023-04-19T08:40:32.918Z,16.26
2023-04-19T08:41:32.877Z,16.19
2023-04-19T08:42:36.318Z,16.27
2023-04-19T08:43:32.822Z,16.16
2023-04-19T08:44:36.870Z,16.19
2023-04-19T08:45:33.905Z,16.19
2023-04-19T08:46:32.700Z,16.25
2023-04-19T08:47:34.294Z,16.37
2023-04-19T08:48:32.561Z,16.42
2023-04-19T08:49:32.497Z,16.19
2023-04-19T08:50:35.824Z,16.36
2023-04-19T08:51:33.353Z,16.42
2023-04-19T08:52:32.915Z,16.39
2023-04-19T08:53:32.211Z,16.26
2023-04-19T08:54:32.139Z,16.47
2023-04-19T08:55:32.070Z,16.59
2023-04-19T08:56:35.606Z,16.56
2023-04-19T08:57:31.929Z,16.67
2023-04-19T08:58:45.911Z,16.75
2023-04-19T08:59:32.778Z,16.82
2023-04-19T09:00:31.714Z,16.67
2023-04-19T09:01:36.045Z,16.78
2023-04-19T09:02:31.957Z,16.92
2023-04-19T09:03:33.384Z,16.80
2023-04-19T09:04:36.478Z,16.92
2023-04-19T09:05:32.492Z,16.99
2023-04-19T09:06:31.524Z,17.09
2023-04-19T09:07:31.208Z,17.16
2023-04-19T09:08:31.142Z,17.22
2023-04-19T09:09:37.280Z,17.33
2023-04-19T09:10:31.975Z,17.22
2023-04-19T09:11:30.885Z,17.34
2023-04-19T09:12:30.860Z,17.37
2023-04-19T09:13:31.644Z,17.37
2023-04-19T09:14:30.672Z,17.32
2023-04-19T09:15:30.713Z,17.18
2023-04-19T09:16:30.495Z,17.13
2023-04-19T09:17:30.451Z,17.32
2023-04-19T09:18:32.177Z,17.33
2023-04-19T09:19:30.458Z,17.39
2023-04-19T09:20:30.214Z,17.39
2023-04-19T09:21:30.135Z,17.46
2023-04-19T09:22:30.047Z,17.49
2023-04-19T09:23:29.975Z,17.51
2023-04-19T09:24:41.499Z,17.54
2023-04-19T09:25:52.285Z,17.37
2023-04-19T09:26:30.755Z,17.32
2023-04-19T09:27:29.670Z,17.43
2023-04-19T09:28:29.594Z,17.49
2023-04-19T09:29:29.528Z,17.47
2023-04-19T09:30:33.899Z,17.43
2023-04-19T09:31:47.826Z,17.41
2023-04-19T09:32:30.352Z,16.85
2023-04-19T09:33:29.295Z,16.78
2023-04-19T09:34:29.150Z,16.70
2023-04-19T09:35:29.108Z,16.61
2023-04-19T09:36:29.060Z,16.32
2023-04-19T09:37:51.366Z,16.32
2023-04-19T09:38:29.928Z,16.26
2023-04-19T09:39:28.876Z,15.94
2023-04-19T09:40:28.869Z,16.30
2023-04-19T09:41:28.766Z,16.36
2023-04-19T09:42:47.471Z,16.27
2023-04-19T09:43:57.991Z,16.04
2023-04-19T09:45:30.542Z,16.26
2023-04-19T09:46:28.558Z,15.98
2023-04-19T09:47:29.097Z,16.26
2023-04-19T09:48:28.383Z,15.95
2023-04-19T09:49:41.748Z,15.85
2023-04-19T09:50:31.201Z,15.85
2023-04-19T09:51:28.230Z,16.13
2023-04-19T09:52:29.175Z,16.18
2023-04-19T09:53:28.130Z,16.09
2023-04-19T09:54:28.077Z,16.00
2023-04-19T09:55:29.206Z,15.92
2023-04-19T09:56:27.997Z,16.20
2023-04-19T09:57:27.944Z,16.15
2023-04-19T09:58:34.380Z,15.78
2023-04-19T09:59:28.842Z,15.83
2023-04-19T10:00:31.577Z,16.00
2023-04-19T10:01:28.775Z,15.97
2023-04-19T10:02:27.767Z,15.85
2023-04-19T10:03:27.773Z,15.67
2023-04-19T10:04:38.313Z,15.75
2023-04-19T10:05:28.698Z,15.92
2023-04-19T10:06:40.438Z,15.90
2023-04-19T10:07:30.641Z,15.60
2023-04-19T10:08:27.426Z,15.61
2023-04-19T10:09:27.363Z,15.67
2023-04-19T10:11:27.328Z,15.43
2023-04-19T10:13:28.227Z,15.25
2023-04-19T10:14:27.181Z,15.29
2023-04-19T10:15:33.901Z,15.33
2023-04-19T10:16:28.156Z,15.42
2023-04-19T10:17:27.101Z,15.29
2023-04-19T10:18:27.027Z,15.61
2023-04-19T10:19:26.991Z,15.45
2023-04-19T10:20:26.946Z,15.42
2023-04-19T10:21:26.921Z,15.53
2023-04-19T10:22:26.862Z,15.45
2023-04-19T10:23:26.823Z,15.28
2023-04-19T10:24:26.790Z,15.28
2023-04-19T10:25:26.795Z,15.54
2023-04-19T10:26:26.833Z,15.54
2023-04-19T10:27:31.985Z,15.42
2023-04-19T10:28:27.787Z,15.46
2023-04-19T10:29:26.729Z,15.64
2023-04-19T10:30:26.684Z,15.88
2023-04-19T10:31:26.730Z,15.97
2023-04-19T10:32:26.645Z,16.05
2023-04-19T10:33:26.526Z,15.98
2023-04-19T10:34:26.455Z,15.95
2023-04-19T10:35:26.445Z,15.80
2023-04-19T10:36:26.364Z,15.67
2023-04-19T10:37:26.314Z,15.74
2023-04-19T10:38:26.266Z,15.73
2023-04-19T10:39:26.223Z,15.56
2023-04-19T10:40:26.162Z,15.81
2023-04-19T10:41:26.684Z,15.94
2023-04-19T10:42:26.062Z,15.92
2023-04-19T10:43:26.000Z,15.71
2023-04-19T10:44:25.977Z,15.94
2023-04-19T10:45:25.944Z,15.94
2023-04-19T10:46:26.297Z,15.87
2023-04-19T10:47:25.859Z,15.73
2023-04-19T10:48:25.778Z,15.88
2023-04-19T10:49:25.741Z,16.05
2023-04-19T10:50:25.666Z,16.02
2023-04-19T10:51:25.641Z,15.75
2023-04-19T10:52:26.171Z,16.07
2023-04-19T10:53:25.489Z,15.92
2023-04-19T10:54:25.434Z,15.98
2023-04-19T10:55:25.367Z,15.95
2023-04-19T10:56:25.319Z,15.95
2023-04-19T10:57:25.302Z,15.85
2023-04-19T10:58:25.244Z,15.90
2023-04-19T10:59:25.260Z,15.68
2023-04-19T11:00:25.276Z,15.85
2023-04-19T11:01:25.303Z,15.83
2023-04-19T11:02:25.456Z,15.98
2023-04-19T11:03:25.392Z,15.64
2023-04-19T11:04:25.421Z,15.88
2023-04-19T11:05:25.205Z,15.75
2023-04-19T11:06:25.345Z,15.83
2023-04-19T11:07:26.282Z,15.92
2023-04-19T11:08:25.223Z,15.67
2023-04-19T11:09:25.166Z,15.84
2023-04-19T11:10:25.108Z,15.94
2023-04-19T11:11:25.058Z,15.84
2023-04-19T11:12:24.997Z,15.92
2023-04-19T11:13:24.938Z,16.18
2023-04-19T11:14:24.871Z,15.94
2023-04-19T11:15:24.812Z,16.00
2023-04-19T11:16:34.286Z,16.00
2023-04-19T11:17:26.016Z,16.07
2023-04-19T11:18:24.683Z,16.25
2023-04-19T11:19:24.598Z,16.30
2023-04-19T11:20:24.540Z,16.35
2023-04-19T11:21:24.484Z,16.11
2023-04-19T11:22:24.422Z,16.25
2023-04-19T11:23:24.367Z,16.15
2023-04-19T11:24:24.333Z,16.12
2023-04-19T11:25:24.257Z,16.35
2023-04-19T11:26:24.208Z,16.37
2023-04-19T11:27:24.128Z,16.33
2023-04-19T11:28:24.096Z,16.15
2023-04-19T11:29:24.022Z,16.29
2023-04-19T11:30:24.224Z,16.22
2023-04-19T11:31:24.502Z,16.39
2023-04-19T11:32:24.608Z,16.19
2023-04-19T11:33:24.712Z,16.20
2023-04-19T11:34:24.914Z,16.39
2023-04-19T11:35:24.893Z,16.49
2023-04-19T11:36:25.014Z,16.52
2023-04-19T11:37:25.070Z,16.54
2023-04-19T11:38:25.302Z,16.59
2023-04-19T11:39:25.476Z,16.57
2023-04-19T11:40:25.632Z,16.43
2023-04-19T11:41:25.784Z,16.61
2023-04-19T11:42:25.889Z,16.63
2023-04-19T11:43:26.120Z,16.49
2023-04-19T11:44:26.284Z,16.60
2023-04-19T11:45:30.168Z,16.59
2023-04-19T11:46:27.428Z,16.60
2023-04-19T11:47:26.339Z,16.66
2023-04-19T11:48:26.271Z,16.75
2023-04-19T11:49:26.204Z,16.64
2023-04-19T11:50:26.128Z,16.60
2023-04-19T11:51:26.074Z,16.46
2023-04-19T11:52:26.006Z,16.64
2023-04-19T11:53:25.943Z,16.72
2023-04-19T11:54:25.942Z,16.50
2023-04-19T11:55:25.827Z,16.67
2023-04-19T11:56:25.751Z,16.71
2023-04-19T11:57:25.686Z,16.52
2023-04-19T11:58:25.620Z,16.32
2023-04-19T11:59:25.572Z,16.47
2023-04-19T12:00:25.499Z,16.50
2023-04-19T12:01:25.443Z,16.49
2023-04-19T12:02:25.492Z,16.53
2023-04-19T12:03:26.786Z,16.61
2023-04-19T12:04:25.493Z,16.66
2023-04-19T12:05:25.312Z,16.61
2023-04-19T12:06:25.157Z,16.59
2023-04-19T12:07:25.250Z,16.63
2023-04-19T12:08:25.433Z,16.71
2023-04-19T12:09:25.680Z,16.74
2023-04-19T12:10:25.754Z,16.71
2023-04-19T12:11:25.905Z,16.77
2023-04-19T12:12:26.106Z,16.68
2023-04-19T12:13:26.354Z,16.40
2023-04-19T12:14:26.337Z,16.50
2023-04-19T12:15:28.687Z,16.37
2023-04-19T12:16:26.598Z,16.40
2023-04-19T12:17:26.556Z,16.56
2023-04-19T12:18:26.537Z,16.50
2023-04-19T12:19:26.455Z,16.46
2023-04-19T12:20:26.429Z,16.64
2023-04-19T12:21:26.401Z,16.74
2023-04-19T12:22:26.340Z,16.70
2023-04-19T12:23:26.290Z,16.77
2023-04-19T12:24:26.222Z,16.64
2023-04-19T12:25:26.280Z,16.53
2023-04-19T12:26:26.353Z,16.72
2023-04-19T12:27:26.569Z,16.74
2023-04-19T12:28:26.675Z,16.56
2023-04-19T12:29:26.872Z,16.74
2023-04-19T12:30:27.119Z,16.68
2023-04-19T12:31:27.231Z,16.72
2023-04-19T12:32:27.482Z,16.60
2023-04-19T12:33:27.494Z,16.47
2023-04-19T12:34:27.613Z,16.59
2023-04-19T12:35:27.743Z,16.68
2023-04-19T12:36:27.922Z,16.64
2023-04-19T12:37:28.177Z,16.74
2023-04-19T12:38:28.337Z,16.80
2023-04-19T12:39:28.507Z,16.87
2023-04-19T12:40:28.681Z,16.75
2023-04-19T12:41:28.848Z,16.80
2023-04-19T12:42:29.004Z,16.64
2023-04-19T12:43:29.168Z,16.66
2023-04-19T12:44:29.364Z,16.60
2023-04-19T12:45:29.389Z,16.71
2023-04-19T12:46:29.671Z,16.71
2023-04-19T12:47:29.711Z,16.56
2023-04-19T12:48:29.901Z,16.70
2023-04-19T12:49:30.055Z,16.72
2023-04-19T12:50:30.125Z,16.64
2023-04-19T12:51:30.334Z,16.44
2023-04-19T12:52:30.382Z,16.63
2023-04-19T12:53:30.641Z,16.75
2023-04-19T12:54:30.716Z,16.52
2023-04-19T12:55:30.933Z,16.57
2023-04-19T12:56:31.091Z,16.53
2023-04-19T12:57:31.164Z,16.59
2023-04-19T12:58:31.380Z,16.60
2023-04-19T12:59:31.578Z,16.67